Seattle, WA

12:31 PM PDT on August 20, 2014 (GMT -0700)
Herrera, Inc. | Change Station
CLOSE
Current Station
Personal Weather Station
Location: Seattle, WA
Elevation: 121 ft
Nearby Weather Stations

Elev 121 ft 47.62 °N, 122.34 °W | Updated 1 second ago

Overcast
Overcast
62.9 °F
Feels Like 62.9 °F
N
8.0
Wind Variable Wind from WNW
Gusts 13.0 mph

Today
High -- | Low -- °F
--% Chance of Precip.
Yesterday
High -- | Low -- °F
Precip. -- in
6:11 AM 8:12 PM
Waning Crescent, 19% visible
Pressure 29.98 in
Visibility 10.0 miles
Clouds Overcast 3500 ft
Dew Point 52 °F
Humidity 68%
Rainfall 0.00 in
Snow Depth Not available.
UV 2 out of 12
Pollen 2.70 out of 12
Air Quality Not available.
Flu Activity Not available.
METAR KBFI 201853Z VRB06KT 10SM OVC035 19/10 A2998 RMK AO2 SLP151 T01940100

More Conditions Fewer Conditions

Pressure 29.98 in
Visibility 10.0 miles
Clouds Overcast 3500 ft
Dew Point 52 °F
Humidity 68%
Rainfall 0.00 in
Snow Depth Not available.
UV 2 out of 12
Pollen 2.70 out of 12
Air Quality Not available.
Flu Activity Not available.
METAR KBFI 201853Z VRB06KT 10SM OVC035 19/10 A2998 RMK AO2 SLP151 T01940100

More Conditions Fewer Conditions

10-Day Weather Forecast

Almanac

Astronomy

Aug. 20, 2014 Rise Set
Actual Time 6:11 AM PDT 8:12 PM PDT
Civil Twilight 5:38 AM PDT 8:45 PM PDT
Nautical Twilight 4:57 AM PDT 9:26 PM PDT
Astronomical Twilight 4:11 AM PDT 10:11 PM PDT
Moon 1:48 AM PDT 5:08 PM PDT
Length of Visible Light 15h 06m
Length of Day
14h 00m
Tomorrow will be 3m 11s shorter.
Waning Crescent, 19% of the Moon is Illuminated
Today
Waning Crescent
Aug 25
New
Sep 2
First Quarter
Sep 8
Full
Sep 15
Last Quarter

Today's Extremes

State Highs State Lows

Community

WunderPhotos

Upload Photos

1,745,727 photos uploaded!

WunderBlogs® & News

By Dr. Jeff Masters
Director of Meteorology, Weather Underground
By Kari Strenfel
Meteorologist, Weather Underground
By Christopher C. Burt
Weather Historian, Weather Underground
August 20, 2014
August 20, 2014
August 20, 2014

Nearby

Air Quality

  Air Quality AQ Index Pollutant
Wednesday Good
OZONE
Wednesday Good
PM2.5
Thursday Good
OZONE
Thursday Good
PM2.5
Friday Good
OZONE
Friday Good
PM2.5
Saturday Good
OZONE
Saturday Good
PM2.5

Snow Depth

Station Depth Elevation
Skookum Creek 0 in 3920 ft
Dungeness 2 in 4100 ft
Olallie Meadows 2 in 3700 ft
Burnt Mountain 0 in 4200 ft
Meadows Pass 0 in 3500 ft

Earthquake Activity

City Distance Mag. Time & Date
No recent earthquake activity has been reported nearby.
Minimum magnitude displayed is 2.5.

Coastal Water Temperatures

Place Temperature
Port Townsend, WA 55.9 °F
Seattle, WA 55.9 °F
Friday Harbor, WA 53.1 °F
Tacoma, WA 55.9 °F

Nearby Weather Stations